Time;durP1;ratioP1;P1;durP2;ratioP2;P2;SDS_P1;SDS_P2;PMS_P1;PMS_P2;Temp;Humidity;BMP_temperature;BMP_pressure;BME280_temperature;BME280_humidity;BME280_pressure;Samples;Min_cycle;Max_cycle;Signal;HPM_P1;HPM_P2
2021/08/26 00:01:17;;;;;;;2.17;1.42;;;21.40;72.40;;;;;;5139683;27;20510;-46
2021/08/26 00:06:27;;;;;;;2.03;1.33;;;21.40;72.50;;;;;;5153451;27;20201;-53
2021/08/26 00:08:56;;;;;;;2.75;1.38;;;21.40;72.50;;;;;;5136348;27;20133;-52
2021/08/26 00:11:24;;;;;;;2.33;1.38;;;21.40;72.50;;;;;;5132060;27;20051;-53
2021/08/26 00:13:52;;;;;;;2.85;1.38;;;21.40;72.50;;;;;;5133561;27;20049;-51
2021/08/26 00:16:24;;;;;;;2.85;1.25;;;21.40;73.30;;;;;;5132270;27;20043;-48
2021/08/26 00:18:49;;;;;;;3.47;1.40;;;21.40;72.50;;;;;;5148566;27;20095;-53
2021/08/26 00:21:15;;;;;;;1.73;1.23;;;21.40;72.50;;;;;;5153177;27;20054;-52
2021/08/26 00:23:41;;;;;;;1.92;1.30;;;21.40;72.50;;;;;;5138645;27;20067;-47
2021/08/26 00:26:07;;;;;;;2.78;1.60;;;21.40;72.50;;;;;;5132382;28;20039;-51
2021/08/26 00:28:33;;;;;;;1.67;1.30;;;21.40;72.50;;;;;;5133463;27;20031;-54
2021/08/26 00:30:59;;;;;;;2.42;1.50;;;21.40;72.50;;;;;;5132296;27;20046;-52
2021/08/26 00:33:24;;;;;;;2.22;1.10;;;21.40;72.50;;;;;;5144665;27;20038;-49
2021/08/26 00:35:51;;;;;;;2.45;1.10;;;21.40;72.50;;;;;;5151475;27;20046;-52
2021/08/26 00:38:16;;;;;;;3.10;1.30;;;21.40;72.50;;;;;;5152904;27;20102;-54
2021/08/26 00:40:42;;;;;;;2.28;1.20;;;21.40;72.50;;;;;;5152773;27;20106;-54
2021/08/26 00:43:08;;;;;;;3.50;1.27;;;21.40;72.50;;;;;;5140816;27;20110;-52
2021/08/26 00:45:34;;;;;;;2.70;1.38;;;21.40;72.50;;;;;;5133299;27;20043;-49
2021/08/26 00:48:02;;;;;;;4.28;1.70;;;21.40;72.50;;;;;;5144584;27;20107;-53
2021/08/26 00:50:28;;;;;;;2.85;1.48;;;21.40;72.80;;;;;;5135693;27;20365;-49
2021/08/26 00:52:54;;;;;;;1.73;1.23;;;21.40;72.50;;;;;;5140576;27;20578;-54
2021/08/26 00:55:20;;;;;;;1.75;1.13;;;21.40;72.50;;;;;;5151140;27;20224;-52
2021/08/26 00:57:46;;;;;;;1.98;1.23;;;21.40;73.30;;;;;;5152452;27;20466;-54
2021/08/26 01:00:12;;;;;;;2.40;1.48;;;21.40;72.50;;;;;;5152400;27;20127;-53
2021/08/26 01:02:56;;;;;;;1.80;1.13;;;21.40;72.50;;;;;;5152931;27;20039;-52
2021/08/26 01:05:39;;;;;;;2.03;1.42;;;21.40;72.50;;;;;;5138548;27;20047;-54
2021/08/26 01:08:46;;;;;;;1.75;1.10;;;21.30;72.50;;;;;;5141800;27;20111;-50
2021/08/26 01:11:14;;;;;;;1.63;1.13;;;21.40;72.50;;;;;;5048267;28;20072;-52
2021/08/26 01:13:41;;;;;;;3.53;1.27;;;21.30;72.50;;;;;;5047725;28;20160;-52
2021/08/26 01:16:10;;;;;;;2.92;1.30;;;21.30;72.50;;;;;;5034094;28;20054;-51
2021/08/26 01:18:44;;;;;;;2.45;1.27;;;21.30;72.60;;;;;;5032313;28;20033;-54
2021/08/26 01:21:15;;;;;;;1.85;1.33;;;21.30;72.50;;;;;;5032426;28;20068;-51
2021/08/26 01:23:51;;;;;;;1.60;1.23;;;21.30;72.50;;;;;;5046285;28;20533;-46
2021/08/26 01:26:22;;;;;;;2.72;1.40;;;21.30;72.60;;;;;;5052360;28;20555;-51
2021/08/26 01:28:50;;;;;;;2.28;1.30;;;21.30;72.60;;;;;;5047928;28;20099;-44
2021/08/26 01:31:19;;;;;;;2.45;1.40;;;21.30;72.60;;;;;;5052344;28;20049;-46
2021/08/26 01:33:49;;;;;;;3.22;1.10;;;21.30;72.60;;;;;;5036754;28;20066;-51
2021/08/26 01:36:15;;;;;;;2.88;1.20;;;21.30;72.60;;;;;;5037866;28;20041;-53
2021/08/26 01:38:44;;;;;;;2.33;1.00;;;21.30;72.60;;;;;;5034073;28;20083;-49
2021/08/26 01:41:09;;;;;;;1.48;1.10;;;21.30;72.60;;;;;;5052195;28;20552;-50
2021/08/26 01:43:37;;;;;;;2.00;1.25;;;21.30;72.60;;;;;;5051532;28;20041;-52
2021/08/26 01:46:03;;;;;;;1.75;1.00;;;21.30;72.60;;;;;;5051017;28;20057;-49
2021/08/26 01:48:28;;;;;;;1.80;1.20;;;21.30;72.60;;;;;;5115664;27;20039;-50
2021/08/26 01:50:54;;;;;;;1.67;1.10;;;21.30;72.60;;;;;;5135220;27;20111;-50
2021/08/26 01:53:20;;;;;;;2.30;1.20;;;21.30;72.70;;;;;;5147083;27;20493;-51
2021/08/26 01:55:46;;;;;;;2.33;0.90;;;21.30;72.60;;;;;;5139484;27;20059;-52
2021/08/26 01:58:13;;;;;;;1.83;1.10;;;21.30;72.60;;;;;;5135273;27;20131;-52
2021/08/26 02:00:39;;;;;;;2.13;1.23;;;21.30;72.60;;;;;;5117471;27;20047;-53
2021/08/26 02:03:04;;;;;;;1.83;1.15;;;21.30;72.60;;;;;;5144770;27;20062;-51
2021/08/26 02:05:30;;;;;;;2.05;1.08;;;21.30;72.60;;;;;;5142091;27;20436;-50
2021/08/26 02:07:56;;;;;;;2.50;1.20;;;21.30;73.30;;;;;;5124980;27;20042;-51
2021/08/26 02:10:22;;;;;;;1.58;1.02;;;21.30;72.60;;;;;;5139874;27;20047;-46
2021/08/26 02:12:48;;;;;;;1.17;0.80;;;21.30;72.60;;;;;;5141927;27;20111;-49
2021/08/26 02:15:15;;;;;;;1.70;1.00;;;21.30;72.60;;;;;;5155237;27;20112;-50
2021/08/26 02:17:41;;;;;;;1.75;1.02;;;21.30;72.60;;;;;;5148511;27;20112;-50
2021/08/26 02:20:08;;;;;;;3.15;1.00;;;21.30;72.60;;;;;;5131031;27;20474;-51
2021/08/26 02:22:34;;;;;;;1.80;1.05;;;21.30;72.60;;;;;;5150022;27;20043;-54
2021/08/26 02:24:59;;;;;;;1.98;1.00;;;21.30;72.60;;;;;;5155451;27;20054;-53
2021/08/26 02:27:25;;;;;;;1.45;1.00;;;21.30;72.60;;;;;;5152854;27;20035;-54
2021/08/26 02:29:51;;;;;;;1.70;1.10;;;21.30;72.60;;;;;;5118732;27;20498;-53
2021/08/26 02:32:17;;;;;;;2.08;1.35;;;21.30;72.60;;;;;;5153206;27;20140;-54
2021/08/26 02:34:42;;;;;;;1.80;0.93;;;21.30;72.60;;;;;;5155420;27;20046;-54
2021/08/26 02:37:08;;;;;;;1.70;1.23;;;21.30;72.60;;;;;;5139003;27;20091;-50
2021/08/26 02:39:37;;;;;;;2.47;1.00;;;21.30;72.60;;;;;;5155226;27;20118;-53
2021/08/26 02:42:03;;;;;;;1.83;1.00;;;21.30;72.60;;;;;;5141505;27;20047;-54
2021/08/26 02:44:29;;;;;;;1.10;0.90;;;21.30;72.70;;;;;;5143970;27;20083;-50
2021/08/26 02:46:55;;;;;;;2.05;1.02;;;21.30;72.70;;;;;;5154597;27;20043;-48
2021/08/26 02:49:21;;;;;;;2.13;1.20;;;21.30;72.60;;;;;;5133904;27;20039;-48
2021/08/26 02:51:47;;;;;;;2.72;1.20;;;21.30;72.60;;;;;;5134924;27;20031;-50
2021/08/26 02:54:13;;;;;;;2.40;1.05;;;21.30;72.70;;;;;;5134167;27;20061;-51
2021/08/26 02:56:38;;;;;;;2.75;1.10;;;21.30;72.70;;;;;;5134273;27;20046;-53
2021/08/26 02:59:04;;;;;;;2.55;1.17;;;21.30;72.70;;;;;;5151574;27;20360;-54
2021/08/26 03:01:29;;;;;;;1.88;1.23;;;21.30;72.60;;;;;;5141137;27;20395;-53
2021/08/26 03:03:55;;;;;;;1.23;0.82;;;21.30;72.70;;;;;;5134635;27;20063;-53
2021/08/26 03:06:21;;;;;;;2.33;1.17;;;21.30;72.70;;;;;;5115235;27;20515;-52
2021/08/26 03:08:46;;;;;;;1.75;0.95;;;21.30;72.70;;;;;;5134079;27;20065;-54
2021/08/26 03:11:12;;;;;;;2.67;1.10;;;21.30;72.60;;;;;;5142159;27;20057;-52
2021/08/26 03:13:38;;;;;;;1.55;1.00;;;21.30;72.70;;;;;;5140670;27;20043;-52
2021/08/26 03:16:05;;;;;;;1.30;0.82;;;21.20;72.60;;;;;;5141778;27;20081;-53
2021/08/26 03:18:32;;;;;;;3.70;1.13;;;21.20;72.60;;;;;;5148108;27;20039;-50
2021/08/26 03:20:57;;;;;;;2.92;1.00;;;21.20;72.70;;;;;;5133325;27;20434;-49
2021/08/26 03:23:23;;;;;;;1.67;1.10;;;21.30;72.70;;;;;;5139191;27;20443;-52
2021/08/26 03:25:49;;;;;;;2.67;1.05;;;21.20;72.70;;;;;;5154335;27;20057;-50
2021/08/26 03:28:17;;;;;;;0.85;0.70;;;21.30;72.80;;;;;;5152462;27;20136;-51
2021/08/26 03:30:43;;;;;;;1.58;0.88;;;21.20;72.70;;;;;;5134181;27;20035;-53
2021/08/26 03:33:09;;;;;;;1.60;0.95;;;21.20;72.70;;;;;;5138381;27;20030;-52
2021/08/26 03:35:35;;;;;;;2.58;1.10;;;21.20;72.70;;;;;;5151665;27;20363;-52
2021/08/26 03:38:02;;;;;;;3.92;1.10;;;21.20;72.70;;;;;;5152855;27;20047;-53
2021/08/26 03:40:27;;;;;;;1.63;1.00;;;21.20;72.70;;;;;;5141719;27;20112;-51
2021/08/26 03:42:53;;;;;;;2.25;1.20;;;21.20;72.70;;;;;;5141610;27;20451;-49
2021/08/26 03:45:19;;;;;;;1.88;1.05;;;21.20;72.70;;;;;;5152262;27;20460;-51
2021/08/26 03:47:44;;;;;;;2.08;0.90;;;21.30;72.80;;;;;;5146614;27;20043;-53
2021/08/26 03:50:10;;;;;;;1.40;0.95;;;21.20;72.70;;;;;;5133448;27;20043;-52
2021/08/26 03:52:36;;;;;;;1.48;0.88;;;21.20;72.70;;;;;;5138866;27;20079;-48
2021/08/26 03:55:01;;;;;;;1.95;1.25;;;21.20;72.70;;;;;;5152706;27;20046;-51
2021/08/26 03:57:27;;;;;;;1.85;1.10;;;21.20;72.70;;;;;;5147795;27;20042;-50
2021/08/26 03:59:53;;;;;;;3.13;1.10;;;21.20;72.70;;;;;;5147972;27;20434;-49
2021/08/26 04:02:19;;;;;;;3.28;1.23;;;21.20;72.70;;;;;;5141598;27;20046;-52
2021/08/26 04:04:44;;;;;;;1.27;0.93;;;21.20;72.70;;;;;;5143130;27;20085;-51
2021/08/26 04:07:11;;;;;;;1.65;1.00;;;21.30;72.80;;;;;;5151372;27;20091;-53
2021/08/26 04:09:37;;;;;;;2.15;0.90;;;21.20;72.70;;;;;;5153221;27;20466;-52
2021/08/26 04:12:03;;;;;;;1.17;0.75;;;21.20;72.70;;;;;;5152493;27;20159;-51
2021/08/26 04:14:28;;;;;;;1.48;1.30;;;21.20;72.70;;;;;;5153460;27;20039;-52
2021/08/26 04:16:54;;;;;;;1.25;0.93;;;21.20;72.70;;;;;;5151075;27;20536;-49
2021/08/26 04:19:19;;;;;;;1.30;1.00;;;21.20;72.70;;;;;;5153176;27;20054;-49
2021/08/26 04:21:45;;;;;;;1.73;1.15;;;21.20;72.70;;;;;;5152765;27;20038;-49
2021/08/26 04:24:11;;;;;;;1.75;1.05;;;21.20;72.70;;;;;;5114109;27;20039;-50
2021/08/26 04:26:36;;;;;;;2.10;1.02;;;21.20;72.70;;;;;;5113119;28;20183;-48
2021/08/26 04:29:02;;;;;;;1.92;1.10;;;21.20;72.70;;;;;;5132555;27;20035;-52
2021/08/26 04:31:28;;;;;;;1.35;0.90;;;21.20;72.70;;;;;;5146809;27;20125;-50
2021/08/26 04:33:53;;;;;;;1.50;0.85;;;21.20;72.80;;;;;;5116332;28;20055;-53
2021/08/26 04:36:19;;;;;;;2.00;1.00;;;21.20;72.70;;;;;;5131363;28;20039;-55
2021/08/26 04:38:44;;;;;;;2.42;1.20;;;21.20;72.70;;;;;;5145706;27;20035;-54
2021/08/26 04:41:10;;;;;;;3.08;1.35;;;21.20;72.80;;;;;;5152677;27;20042;-54
2021/08/26 04:43:36;;;;;;;1.38;0.90;;;21.20;72.70;;;;;;5138395;27;20126;-54
2021/08/26 04:46:01;;;;;;;2.65;1.17;;;21.20;72.80;;;;;;5132570;28;20051;-50
2021/08/26 04:48:27;;;;;;;1.80;1.17;;;21.30;72.80;;;;;;5143371;27;20387;-54
2021/08/26 04:50:53;;;;;;;2.33;1.05;;;21.20;72.80;;;;;;5156816;27;20097;-53
2021/08/26 04:53:18;;;;;;;1.13;0.80;;;21.20;72.80;;;;;;5144383;27;20035;-50
2021/08/26 04:55:44;;;;;;;1.58;1.05;;;21.20;72.80;;;;;;5135681;27;20038;-46
2021/08/26 04:58:09;;;;;;;2.25;1.40;;;21.20;72.80;;;;;;5143250;27;20551;-51
2021/08/26 05:00:35;;;;;;;2.42;0.98;;;21.20;72.80;;;;;;5148817;27;20041;-50
2021/08/26 05:03:03;;;;;;;1.92;1.05;;;21.20;72.80;;;;;;5136529;27;20047;-49
2021/08/26 05:05:29;;;;;;;2.08;1.00;;;21.20;72.80;;;;;;5137539;27;20449;-47
2021/08/26 05:07:54;;;;;;;2.10;0.95;;;21.10;72.70;;;;;;5144614;27;20051;-47
2021/08/26 05:10:20;;;;;;;1.30;1.10;;;21.20;72.80;;;;;;5154810;27;20042;-49
2021/08/26 05:12:46;;;;;;;2.42;1.00;;;21.20;72.80;;;;;;5156453;27;20047;-52
2021/08/26 05:15:11;;;;;;;1.70;1.10;;;21.20;72.90;;;;;;5145993;27;20399;-48
2021/08/26 05:17:37;;;;;;;2.22;0.90;;;21.20;72.80;;;;;;5136538;27;20544;-49
2021/08/26 05:20:03;;;;;;;2.42;1.25;;;21.20;72.80;;;;;;5137288;27;20443;-48
2021/08/26 05:22:28;;;;;;;2.05;1.10;;;21.20;72.80;;;;;;5135814;27;20565;-47
2021/08/26 05:24:54;;;;;;;1.95;1.38;;;21.20;72.80;;;;;;5137677;27;20123;-53
2021/08/26 05:27:20;;;;;;;2.03;1.13;;;21.20;72.90;;;;;;5152878;27;20035;-50
2021/08/26 05:29:46;;;;;;;1.15;0.90;;;21.20;72.80;;;;;;5124090;27;20054;-50
2021/08/26 05:32:11;;;;;;;1.67;0.88;;;21.20;72.90;;;;;;5152347;27;20078;-45
2021/08/26 05:34:38;;;;;;;2.50;1.20;;;21.20;72.80;;;;;;5135724;27;20126;-50
2021/08/26 05:37:04;;;;;;;1.35;1.00;;;21.20;72.90;;;;;;5116755;27;20108;-45
2021/08/26 05:39:29;;;;;;;1.50;0.90;;;21.20;72.90;;;;;;5136181;27;20039;-52
2021/08/26 05:41:56;;;;;;;3.10;1.25;;;21.20;72.80;;;;;;5117509;27;20043;-50
2021/08/26 05:44:21;;;;;;;1.10;0.80;;;21.10;72.80;;;;;;5139400;27;20544;-51
2021/08/26 05:46:47;;;;;;;1.67;1.25;;;21.20;72.90;;;;;;5156609;27;20042;-52
2021/08/26 05:49:13;;;;;;;2.35;1.30;;;21.20;72.80;;;;;;5149259;27;20039;-51
2021/08/26 05:51:39;;;;;;;0.98;0.80;;;21.20;72.90;;;;;;5136812;27;20142;-48
2021/08/26 05:54:04;;;;;;;3.45;1.20;;;21.20;72.80;;;;;;5135456;27;20035;-50
2021/08/26 05:56:30;;;;;;;1.20;1.10;;;21.20;72.80;;;;;;5135116;27;20050;-52
2021/08/26 05:58:56;;;;;;;1.75;0.80;;;21.10;72.80;;;;;;5135531;27;20438;-47
2021/08/26 06:01:26;;;;;;;1.92;1.00;;;21.10;72.80;;;;;;5139132;27;20126;-50
2021/08/26 06:03:52;;;;;;;1.35;0.77;;;21.20;72.80;;;;;;5136643;27;20045;-49
2021/08/26 06:06:17;;;;;;;1.48;1.00;;;21.10;72.80;;;;;;5135313;27;20043;-50
2021/08/26 06:08:43;;;;;;;2.13;1.25;;;21.10;72.80;;;;;;5134960;27;20080;-50
2021/08/26 06:11:09;;;;;;;3.10;1.33;;;21.20;72.90;;;;;;5134835;27;20051;-50
2021/08/26 06:13:34;;;;;;;2.25;1.30;;;21.10;72.80;;;;;;5146755;27;20064;-52
2021/08/26 06:16:00;;;;;;;1.98;1.20;;;21.10;72.80;;;;;;5155703;27;20436;-51
2021/08/26 06:18:26;;;;;;;1.98;1.13;;;21.10;72.80;;;;;;5142318;27;20047;-44
2021/08/26 06:20:51;;;;;;;1.92;0.93;;;21.10;72.80;;;;;;5147179;27;20054;-51
2021/08/26 06:23:17;;;;;;;1.33;1.13;;;21.10;72.80;;;;;;5155545;27;20034;-47
2021/08/26 06:25:43;;;;;;;1.73;1.15;;;21.10;72.80;;;;;;5155780;27;20031;-51
2021/08/26 06:28:09;;;;;;;2.70;1.10;;;21.20;72.90;;;;;;5155395;27;20077;-47
2021/08/26 06:30:35;;;;;;;0.93;0.88;;;21.10;72.80;;;;;;5155694;27;20047;-45
2021/08/26 06:33:00;;;;;;;2.55;1.25;;;21.20;72.90;;;;;;5155608;27;20061;-50
2021/08/26 06:35:26;;;;;;;2.15;1.10;;;21.10;72.80;;;;;;5155356;27;20111;-46
2021/08/26 06:37:52;;;;;;;1.48;1.10;;;21.10;72.90;;;;;;5119811;27;20160;-49
2021/08/26 06:40:17;;;;;;;1.40;0.80;;;21.10;72.80;;;;;;5155231;27;20031;-52
2021/08/26 06:42:43;;;;;;;1.35;1.10;;;21.10;72.80;;;;;;5136270;27;20058;-50
2021/08/26 06:45:10;;;;;;;2.15;1.08;;;21.10;72.80;;;;;;5154776;27;20096;-47
2021/08/26 06:47:35;;;;;;;1.52;0.93;;;21.10;72.80;;;;;;5155013;27;20475;-52
2021/08/26 06:50:02;;;;;;;1.40;0.95;;;21.10;72.90;;;;;;5155263;27;20038;-45
2021/08/26 06:52:27;;;;;;;1.95;0.90;;;21.10;72.80;;;;;;5155234;27;20039;-49
2021/08/26 06:54:53;;;;;;;2.58;1.05;;;21.20;72.90;;;;;;5155134;27;20527;-52
2021/08/26 06:57:19;;;;;;;1.25;0.90;;;21.10;72.80;;;;;;5154158;27;20375;-46
2021/08/26 06:59:45;;;;;;;1.83;1.00;;;21.20;72.90;;;;;;5154228;27;20061;-52
2021/08/26 07:02:11;;;;;;;1.88;1.30;;;21.20;72.90;;;;;;5154593;27;20491;-50
2021/08/26 07:04:36;;;;;;;2.58;1.10;;;21.20;72.90;;;;;;5155112;27;20084;-49
2021/08/26 07:07:02;;;;;;;2.10;0.90;;;21.10;72.80;;;;;;5154706;27;20043;-47
2021/08/26 07:09:28;;;;;;;1.70;1.10;;;21.20;72.90;;;;;;5155187;27;20031;-45
2021/08/26 07:11:54;;;;;;;1.98;1.23;;;21.20;73.10;;;;;;5154289;27;20403;-51
2021/08/26 07:14:20;;;;;;;2.47;1.10;;;21.20;72.90;;;;;;5134460;27;20050;-47
2021/08/26 07:16:45;;;;;;;1.48;1.05;;;21.20;72.80;;;;;;5154373;27;20049;-50
2021/08/26 07:19:11;;;;;;;2.25;1.20;;;21.20;72.80;;;;;;5154910;27;20095;-49
2021/08/26 07:21:39;;;;;;;2.50;1.33;;;21.20;72.80;;;;;;5154505;27;20502;-48
2021/08/26 07:24:04;;;;;;;1.30;1.00;;;21.20;72.80;;;;;;5154855;27;20046;-47
2021/08/26 07:26:30;;;;;;;2.70;1.30;;;21.20;72.80;;;;;;5154846;27;20095;-46
2021/08/26 07:28:56;;;;;;;2.58;0.95;;;21.20;72.90;;;;;;5154598;27;20129;-52
2021/08/26 07:31:22;;;;;;;1.75;1.17;;;21.20;72.80;;;;;;5154205;27;20031;-53
2021/08/26 07:33:48;;;;;;;1.60;0.93;;;21.20;72.80;;;;;;5147655;27;20401;-47
2021/08/26 07:36:14;;;;;;;1.45;0.80;;;21.20;72.80;;;;;;5115044;27;20122;-53
2021/08/26 07:38:39;;;;;;;2.97;1.30;;;21.20;72.70;;;;;;5134193;27;20134;-54
2021/08/26 07:41:05;;;;;;;1.52;1.08;;;21.20;72.70;;;;;;5135342;27;20035;-52
2021/08/26 07:43:31;;;;;;;2.72;1.27;;;21.20;72.70;;;;;;5133921;27;20043;-48
2021/08/26 07:45:57;;;;;;;1.00;0.80;;;21.20;72.70;;;;;;5133732;27;20523;-53
2021/08/26 07:48:24;;;;;;;1.98;1.30;;;21.30;72.80;;;;;;5133454;27;21031;-53
2021/08/26 07:50:52;;;;;;;3.05;1.50;;;21.20;72.80;;;;;;5149436;27;20058;-55
2021/08/26 07:53:19;;;;;;;1.88;1.15;;;21.30;72.80;;;;;;5154593;27;20085;-52
2021/08/26 07:55:44;;;;;;;1.75;1.13;;;21.20;72.70;;;;;;5154274;27;20050;-51
2021/08/26 07:58:10;;;;;;;1.92;0.82;;;21.30;72.80;;;;;;5142182;27;20047;-54
2021/08/26 08:00:36;;;;;;;1.45;0.95;;;21.30;72.80;;;;;;5133838;27;20049;-52
2021/08/26 08:03:02;;;;;;;4.47;1.20;;;21.30;72.80;;;;;;5139925;27;20406;-48
2021/08/26 08:05:28;;;;;;;2.45;1.13;;;21.30;72.80;;;;;;5154341;27;20125;-49
2021/08/26 08:07:53;;;;;;;11.93;4.15;;;21.30;72.80;;;;;;5137642;27;20449;-51
2021/08/26 08:10:19;;;;;;;14.43;4.10;;;21.30;72.50;;;;;;5133205;27;20043;-52
2021/08/26 08:12:44;;;;;;;12.85;4.35;;;21.30;72.50;;;;;;5133269;27;20047;-52
2021/08/26 08:15:11;;;;;;;15.02;4.22;;;21.30;72.40;;;;;;5133285;27;20445;-54
2021/08/26 08:17:37;;;;;;;15.32;4.82;;;21.30;72.40;;;;;;5133465;27;20130;-53
2021/08/26 08:20:06;;;;;;;10.02;3.47;;;21.30;72.40;;;;;;5133905;27;20456;-49
2021/08/26 08:22:31;;;;;;;11.85;3.75;;;21.30;72.20;;;;;;5133098;27;20070;-52
2021/08/26 08:24:57;;;;;;;16.52;4.68;;;21.30;72.10;;;;;;5132326;27;20396;-48
2021/08/26 08:27:23;;;;;;;16.20;4.72;;;21.30;72.00;;;;;;5133920;27;20031;-49
2021/08/26 08:29:48;;;;;;;13.25;3.10;;;21.30;71.90;;;;;;5133041;27;20385;-62
2021/08/26 08:32:14;;;;;;;9.20;3.65;;;21.30;71.50;;;;;;5132367;28;20419;-52
2021/08/26 08:34:40;;;;;;;7.25;3.00;;;21.30;71.50;;;;;;5132370;28;20112;-55
2021/08/26 08:37:06;;;;;;;9.73;3.53;;;21.30;71.40;;;;;;5132447;28;20471;-55
2021/08/26 08:39:33;;;;;;;13.73;4.07;;;21.30;71.40;;;;;;5133697;27;20158;-52
2021/08/26 08:41:59;;;;;;;7.00;3.40;;;21.30;71.40;;;;;;5132412;28;20472;-50
2021/08/26 08:44:24;;;;;;;11.35;3.67;;;21.30;71.50;;;;;;5132699;28;20036;-50
2021/08/26 08:46:55;;;;;;;11.60;4.00;;;21.30;71.60;;;;;;5113899;28;20503;-50
2021/08/26 08:49:21;;;;;;;13.30;3.38;;;21.30;71.60;;;;;;5133502;27;20084;-55
2021/08/26 08:51:51;;;;;;;8.93;3.30;;;21.40;71.80;;;;;;5132490;27;20479;-49
2021/08/26 08:54:17;;;;;;;8.70;3.45;;;21.40;71.80;;;;;;5132507;28;20046;-51
2021/08/26 08:56:43;;;;;;;7.07;2.97;;;21.40;71.80;;;;;;5132491;28;20180;-52
2021/08/26 08:59:09;;;;;;;12.73;3.28;;;21.40;71.80;;;;;;5134052;27;20042;-53
2021/08/26 09:01:35;;;;;;;9.77;3.00;;;21.40;71.80;;;;;;5132695;28;20385;-54
2021/08/26 09:04:01;;;;;;;6.93;2.78;;;21.40;71.90;;;;;;5132890;28;20130;-52
2021/08/26 09:06:40;;;;;;;7.32;2.95;;;21.40;71.90;;;;;;5132271;28;20046;-53
2021/08/26 09:09:07;;;;;;;8.15;3.00;;;21.40;71.90;;;;;;5132911;28;20091;-54
2021/08/26 09:11:33;;;;;;;8.05;3.10;;;21.40;71.90;;;;;;5133734;27;20055;-53
2021/08/26 09:14:13;;;;;;;6.03;2.58;;;21.40;71.90;;;;;;5132972;27;20051;-55
2021/08/26 09:16:44;;;;;;;6.97;3.05;;;21.40;72.00;;;;;;5133000;28;20069;-56
2021/08/26 09:19:30;;;;;;;6.68;3.08;;;21.40;71.90;;;;;;5133556;27;20141;-50
2021/08/26 09:22:06;;;;;;;7.70;2.70;;;21.40;71.90;;;;;;5149015;27;20039;-52
2021/08/26 09:24:54;;;;;;;8.02;2.58;;;21.50;72.00;;;;;;5152463;27;20399;-51
2021/08/26 09:27:32;;;;;;;7.15;2.70;;;21.50;72.00;;;;;;5151935;27;20042;-49
2021/08/26 09:30:02;;;;;;;6.65;2.30;;;21.40;71.90;;;;;;5152739;27;20047;-47
2021/08/26 09:32:49;;;;;;;7.28;2.67;;;21.50;72.00;;;;;;5137147;27;20039;-52
2021/08/26 09:35:22;;;;;;;5.55;2.33;;;21.50;72.00;;;;;;5151181;27;20542;-53
2021/08/26 09:37:54;;;;;;;4.78;2.50;;;21.50;72.00;;;;;;5153713;27;20038;-49
2021/08/26 09:40:23;;;;;;;7.68;2.60;;;21.50;72.00;;;;;;5155966;27;20062;-49
2021/08/26 09:42:55;;;;;;;4.95;2.55;;;21.50;72.00;;;;;;5135834;27;20030;-51
2021/08/26 09:45:23;;;;;;;4.70;2.35;;;21.50;72.00;;;;;;5153192;27;20074;-53
2021/08/26 09:47:56;;;;;;;5.07;2.60;;;21.60;72.10;;;;;;5155714;27;20569;-47
2021/08/26 09:50:54;;;;;;;5.97;2.20;;;21.50;72.00;;;;;;5153184;27;20034;-52
2021/08/26 09:53:37;;;;;;;4.85;2.08;;;21.50;72.00;;;;;;5150889;27;20038;-49
2021/08/26 09:56:03;;;;;;;6.00;2.03;;;21.50;72.00;;;;;;5153339;27;20043;-46
2021/08/26 09:58:36;;;;;;;4.05;2.15;;;21.60;72.10;;;;;;5129733;27;20490;-50
2021/08/26 10:01:14;;;;;;;5.50;2.28;;;21.60;72.10;;;;;;5148650;27;20103;-49
2021/08/26 10:03:40;;;;;;;4.50;2.00;;;21.60;72.10;;;;;;5149569;27;20099;-52
2021/08/26 10:06:06;;;;;;;5.43;2.45;;;21.40;71.90;;;;;;5154735;27;20141;-50
2021/08/26 10:08:33;;;;;;;5.22;2.45;;;21.60;72.10;;;;;;5154729;27;20045;-53
2021/08/26 10:11:03;;;;;;;4.47;2.08;;;21.60;72.00;;;;;;5153769;27;20063;-48
2021/08/26 10:13:30;;;;;;;3.75;2.00;;;21.60;72.00;;;;;;5152844;27;20046;-48
2021/08/26 10:15:56;;;;;;;4.65;2.00;;;21.60;72.00;;;;;;5144754;27;20039;-50
2021/08/26 10:18:22;;;;;;;5.35;2.08;;;21.60;72.00;;;;;;5137625;27;20050;-53
2021/08/26 10:20:48;;;;;;;3.75;2.08;;;21.60;71.90;;;;;;5153325;27;20043;-49
2021/08/26 10:23:15;;;;;;;6.10;2.15;;;21.60;71.90;;;;;;5153123;27;20379;-54
2021/08/26 10:25:43;;;;;;;6.22;2.92;;;21.60;71.90;;;;;;5139293;27;20130;-53
2021/08/26 10:28:10;;;;;;;5.20;2.45;;;21.70;72.00;;;;;;5134019;27;20460;-52
2021/08/26 10:30:39;;;;;;;4.18;2.10;;;21.70;71.90;;;;;;5136214;27;20047;-53
2021/08/26 10:33:15;;;;;;;4.70;2.17;;;21.70;71.90;;;;;;5155259;27;20542;-50
2021/08/26 10:35:53;;;;;;;5.43;2.25;;;21.70;71.80;;;;;;5144518;27;20042;-51
2021/08/26 10:38:28;;;;;;;4.18;2.10;;;21.70;71.80;;;;;;5153476;27;20091;-53
2021/08/26 10:40:58;;;;;;;5.80;2.40;;;21.70;71.80;;;;;;5154330;27;20035;-48
2021/08/26 10:43:33;;;;;;;3.42;1.83;;;21.70;71.80;;;;;;5134825;27;20116;-52
2021/08/26 10:45:59;;;;;;;2.95;1.83;;;21.80;71.80;;;;;;5146670;27;20039;-50
2021/08/26 10:48:27;;;;;;;2.63;1.67;;;21.70;71.70;;;;;;5133500;27;20075;-50
2021/08/26 10:51:15;;;;;;;4.47;1.88;;;21.80;71.70;;;;;;5143639;27;20038;-46
2021/08/26 10:53:46;;;;;;;3.28;1.63;;;21.80;71.70;;;;;;5152796;27;20050;-52
2021/08/26 10:56:22;;;;;;;3.97;2.00;;;21.80;71.70;;;;;;5146543;27;20047;-51
2021/08/26 10:58:58;;;;;;;5.57;2.20;;;21.80;71.70;;;;;;5133623;27;20130;-53
2021/08/26 11:01:39;;;;;;;4.65;2.00;;;21.80;71.60;;;;;;5133683;27;20122;-53
2021/08/26 11:04:17;;;;;;;2.85;1.83;;;21.80;71.60;;;;;;5142174;27;20047;-54
2021/08/26 11:06:44;;;;;;;5.07;2.03;;;21.80;71.60;;;;;;5150950;27;20045;-47
2021/08/26 11:09:13;;;;;;;4.68;2.20;;;21.80;71.60;;;;;;5134255;27;20049;-51
2021/08/26 11:11:46;;;;;;;3.60;1.83;;;21.90;71.50;;;;;;5133708;27;20053;-48
2021/08/26 11:14:23;;;;;;;4.43;1.98;;;21.90;71.50;;;;;;5134188;27;20054;-55
2021/08/26 11:16:50;;;;;;;2.90;1.33;;;21.90;71.50;;;;;;5133995;27;20110;-55
2021/08/26 11:19:16;;;;;;;2.70;1.55;;;21.90;71.40;;;;;;5138467;27;20038;-55
2021/08/26 11:21:45;;;;;;;2.35;1.70;;;21.90;71.40;;;;;;5155162;27;20042;-55
2021/08/26 11:24:16;;;;;;;5.80;2.00;;;21.90;71.40;;;;;;5155260;27;20101;-56
2021/08/26 11:27:20;;;;;;;2.40;1.40;;;21.90;71.40;;;;;;5135639;27;20565;-56
2021/08/26 11:29:46;;;;;;;3.25;1.73;;;21.90;71.40;;;;;;5153401;27;20122;-57
2021/08/26 11:32:14;;;;;;;2.40;1.52;;;21.90;71.40;;;;;;5155151;27;20038;-57
2021/08/26 11:34:41;;;;;;;3.78;1.73;;;22.00;71.40;;;;;;5136590;27;20046;-57
2021/08/26 11:37:09;;;;;;;3.35;1.52;;;22.00;71.40;;;;;;5154806;27;20125;-57
2021/08/26 11:39:38;;;;;;;2.67;1.60;;;22.00;71.30;;;;;;5153362;27;20142;-56
2021/08/26 11:42:11;;;;;;;3.50;1.67;;;22.00;71.50;;;;;;5154787;27;20505;-58
2021/08/26 11:44:37;;;;;;;1.98;1.50;;;22.00;71.20;;;;;;5155450;27;20109;-57
2021/08/26 11:47:03;;;;;;;2.67;1.40;;;22.00;71.20;;;;;;5136490;27;20034;-56
2021/08/26 11:49:37;;;;;;;2.53;1.40;;;22.00;71.20;;;;;;5153222;27;20092;-57
2021/08/26 11:52:05;;;;;;;2.92;1.30;;;22.00;71.20;;;;;;5136350;27;20130;-56
2021/08/26 11:54:40;;;;;;;4.45;1.85;;;22.00;71.20;;;;;;5154693;27;20046;-57
2021/08/26 11:57:06;;;;;;;;;;;22.00;71.20;;;;;;5153884;27;20151;-55
2021/08/26 11:59:35;;;;;;;1.90;1.02;;;22.00;71.10;;;;;;5153041;27;19919;-53
2021/08/26 12:02:18;;;;;;;3.13;1.50;;;22.00;71.20;;;;;;5153420;27;20043;-54
2021/08/26 12:04:46;;;;;;;2.10;1.30;;;22.00;71.10;;;;;;5154363;27;20046;-55
2021/08/26 12:07:22;;;;;;;2.97;1.63;;;22.10;71.20;;;;;;5154402;27;20046;-55
2021/08/26 12:09:49;;;;;;;2.15;1.13;;;22.00;71.10;;;;;;5154126;27;20061;-55
2021/08/26 12:12:15;;;;;;;2.55;1.40;;;22.00;71.10;;;;;;5136117;27;20050;-54
2021/08/26 12:14:41;;;;;;;1.60;1.15;;;22.10;71.10;;;;;;5132732;27;20051;-54
2021/08/26 12:17:19;;;;;;;1.30;1.00;;;22.10;71.10;;;;;;5133082;27;20062;-54
2021/08/26 12:19:47;;;;;;;2.03;1.10;;;22.10;71.10;;;;;;5133530;27;20035;-55
2021/08/26 12:22:18;;;;;;;2.25;1.08;;;22.10;71.10;;;;;;5115389;27;20043;-54
2021/08/26 12:24:54;;;;;;;1.90;1.10;;;22.10;71.00;;;;;;5114375;27;20046;-55
2021/08/26 12:27:20;;;;;;;3.08;1.42;;;22.10;71.00;;;;;;5133088;27;20493;-55
2021/08/26 12:29:48;;;;;;;2.72;1.45;;;22.10;71.00;;;;;;5132445;27;20071;-55
2021/08/26 12:32:32;;;;;;;2.40;1.48;;;22.10;71.00;;;;;;5134288;27;20445;-55
2021/08/26 12:35:42;;;;;;;2.17;1.45;;;22.10;71.00;;;;;;5132968;28;20039;-54
2021/08/26 12:38:09;;;;;;;1.67;0.98;;;22.10;70.90;;;;;;5049168;28;20045;-55
2021/08/26 12:40:51;;;;;;;2.10;1.30;;;22.10;71.00;;;;;;5049427;28;20083;-54
2021/08/26 12:43:18;;;;;;;1.90;1.20;;;22.10;70.90;;;;;;5048037;28;20453;-55
2021/08/26 12:45:43;;;;;;;3.08;1.20;;;22.10;71.00;;;;;;5049020;28;20033;-55
2021/08/26 12:48:26;;;;;;;2.65;1.35;;;22.10;71.00;;;;;;5049505;28;20616;-55
2021/08/26 12:51:08;;;;;;;1.77;1.10;;;22.10;70.90;;;;;;5049247;28;20401;-54
2021/08/26 12:53:35;;;;;;;2.10;1.20;;;22.10;70.90;;;;;;5030882;28;20121;-54